createdAt,value
2023-02-01T00:00:34.162Z,24.52
2023-02-01T00:03:02.027Z,28.83
2023-02-01T00:05:29.098Z,23.90
2023-02-01T00:07:56.086Z,24.92
2023-02-01T00:10:23.477Z,18.95
2023-02-01T00:12:50.715Z,18.83
2023-02-01T00:15:17.862Z,26.42
2023-02-01T00:17:44.996Z,30.90
2023-02-01T00:20:12.513Z,25.42
2023-02-01T00:22:39.530Z,37.15
2023-02-01T00:25:07.445Z,34.15
2023-02-01T00:27:34.493Z,23.25
2023-02-01T00:30:01.561Z,25.20
2023-02-01T00:32:28.604Z,35.42
2023-02-01T00:34:55.611Z,32.70
2023-02-01T00:37:24.117Z,28.40
2023-02-01T00:39:51.315Z,21.27
2023-02-01T00:42:18.362Z,29.50
2023-02-01T00:44:46.714Z,23.45
2023-02-01T00:47:13.709Z,29.75
2023-02-01T00:49:40.700Z,36.40
2023-02-01T00:52:07.762Z,36.33
2023-02-01T00:54:35.585Z,37.50
2023-02-01T00:57:02.745Z,24.15
2023-02-01T00:59:29.887Z,33.88
2023-02-01T01:01:56.976Z,33.17
2023-02-01T01:04:23.996Z,30.17
2023-02-01T01:06:50.984Z,23.60
2023-02-01T01:09:18.038Z,29.42
2023-02-01T01:11:45.751Z,28.90
2023-02-01T01:14:12.839Z,24.65
2023-02-01T01:16:39.998Z,31.00
2023-02-01T01:19:07.882Z,26.38
2023-02-01T01:21:34.917Z,31.77
2023-02-01T01:24:02.098Z,42.08
2023-02-01T01:26:30.769Z,36.60
2023-02-01T01:28:59.988Z,28.60
2023-02-01T01:31:29.172Z,27.95
2023-02-01T01:33:58.651Z,42.45
2023-02-01T01:36:27.189Z,32.30
2023-02-01T01:38:54.586Z,32.22
2023-02-01T01:41:24.860Z,25.30
2023-02-01T01:43:59.062Z,37.95
2023-02-01T01:46:30.751Z,32.10
2023-02-01T01:49:03.979Z,29.13
2023-02-01T01:51:36.521Z,28.33
2023-02-01T01:54:13.364Z,41.33
2023-02-01T01:56:42.143Z,38.95
2023-02-01T01:59:10.380Z,37.95
2023-02-01T02:01:37.535Z,24.50
2023-02-01T02:04:05.583Z,31.15
2023-02-01T02:06:41.712Z,30.80
2023-02-01T02:09:08.810Z,29.73
2023-02-01T02:11:35.933Z,26.92
2023-02-01T02:14:05.963Z,27.83
2023-02-01T02:17:03.696Z,27.27
2023-02-01T02:19:36.533Z,25.70
2023-02-01T02:22:44.042Z,26.83
2023-02-01T02:25:48.634Z,25.70
2023-02-01T02:28:46.241Z,20.95
2023-02-01T02:31:34.695Z,34.53
2023-02-01T02:34:23.231Z,29.75
2023-02-01T02:37:47.747Z,25.35
2023-02-01T02:40:23.846Z,19.95
2023-02-01T02:43:38.932Z,20.63
2023-02-01T02:46:36.360Z,25.95
2023-02-01T02:49:30.203Z,24.02
2023-02-01T02:52:52.380Z,33.05
2023-02-01T02:55:21.508Z,33.10
2023-02-01T02:58:07.830Z,27.05
2023-02-01T03:00:56.405Z,30.63
2023-02-01T03:03:42.266Z,24.60
2023-02-01T03:06:19.472Z,23.27
2023-02-01T03:08:47.224Z,26.23
2023-02-01T03:11:16.242Z,24.13
2023-02-01T03:13:55.979Z,25.65
2023-02-01T03:16:35.790Z,20.17
2023-02-01T03:19:15.014Z,22.95
2023-02-01T03:21:46.510Z,22.83
2023-02-01T03:24:21.271Z,16.85
2023-02-01T03:26:55.944Z,34.20
2023-02-01T03:29:30.511Z,26.65
2023-02-01T03:31:57.663Z,25.85
2023-02-01T03:34:24.867Z,19.17
2023-02-01T03:37:03.116Z,20.15
2023-02-01T03:40:06.142Z,20.80
2023-02-01T03:42:44.095Z,28.58
2023-02-01T03:45:43.434Z,18.38
2023-02-01T03:48:14.546Z,19.98
2023-02-01T03:50:48.153Z,24.70
2023-02-01T03:53:18.563Z,19.92
2023-02-01T03:55:47.295Z,29.63
2023-02-01T03:58:18.806Z,25.27
2023-02-01T04:01:00.671Z,36.78
2023-02-01T04:03:29.669Z,20.20
2023-02-01T04:05:57.350Z,23.90
2023-02-01T04:08:27.834Z,25.48
2023-02-01T04:10:55.021Z,18.42
2023-02-01T04:13:22.095Z,29.13
2023-02-01T04:15:50.721Z,19.67
2023-02-01T04:18:17.747Z,16.73
2023-02-01T04:20:45.466Z,21.83
2023-02-01T04:23:13.076Z,32.63
2023-02-01T04:25:40.165Z,21.17
2023-02-01T04:28:07.910Z,24.77
2023-02-01T04:30:35.049Z,18.77
2023-02-01T04:33:04.542Z,23.85
2023-02-01T04:35:31.787Z,31.30
2023-02-01T04:37:58.791Z,20.80
2023-02-01T04:40:26.100Z,18.40
2023-02-01T04:42:53.194Z,23.92
2023-02-01T04:45:20.180Z,32.70
2023-02-01T04:47:48.980Z,24.15
2023-02-01T04:50:16.365Z,30.48
2023-02-01T04:52:43.417Z,26.60
2023-02-01T04:55:10.404Z,37.88
2023-02-01T04:57:39.676Z,25.67
2023-02-01T05:00:09.539Z,39.88
2023-02-01T05:02:36.608Z,20.63
2023-02-01T05:05:03.764Z,35.30
2023-02-01T05:07:31.005Z,29.02
2023-02-01T05:09:57.999Z,37.33
2023-02-01T05:12:43.421Z,25.77
2023-02-01T05:15:10.561Z,27.02
2023-02-01T05:17:37.549Z,27.67
2023-02-01T05:20:05.072Z,36.15
2023-02-01T05:22:32.109Z,18.65
2023-02-01T05:24:59.156Z,23.00
2023-02-01T05:27:26.137Z,14.45
2023-02-01T05:29:53.237Z,26.77
2023-02-01T05:32:22.522Z,22.95
2023-02-01T05:34:50.387Z,45.50
2023-02-01T05:37:17.463Z,20.75
2023-02-01T05:39:44.564Z,21.13
2023-02-01T05:42:11.685Z,21.58
2023-02-01T05:44:38.679Z,38.90
2023-02-01T05:47:05.732Z,28.83
2023-02-01T05:49:32.822Z,33.38
2023-02-01T05:52:00.640Z,33.20
2023-02-01T05:54:28.049Z,26.20
2023-02-01T05:56:55.006Z,26.00
2023-02-01T05:59:22.012Z,31.48
2023-02-01T06:01:49.116Z,37.30
2023-02-01T06:04:16.385Z,27.13
2023-02-01T06:06:43.367Z,28.00
2023-02-01T06:09:10.935Z,26.52
2023-02-01T06:11:38.067Z,21.17
2023-02-01T06:14:05.052Z,38.83
2023-02-01T06:16:32.589Z,24.48
2023-02-01T06:18:59.586Z,20.73
2023-02-01T06:21:26.673Z,18.58
2023-02-01T06:23:55.100Z,28.95
2023-02-01T06:26:22.531Z,23.10
2023-02-01T06:28:50.155Z,31.05
2023-02-01T06:31:17.251Z,28.55
2023-02-01T06:33:44.429Z,27.77
2023-02-01T06:36:16.753Z,35.85
2023-02-01T06:38:43.808Z,20.95
2023-02-01T06:41:11.993Z,42.10
2023-02-01T06:43:39.340Z,22.05
2023-02-01T06:46:09.219Z,28.52
2023-02-01T06:48:36.378Z,26.25
2023-02-01T06:51:03.775Z,35.20
2023-02-01T06:53:31.295Z,26.20
2023-02-01T06:55:59.523Z,25.50
2023-02-01T06:58:31.951Z,31.13
2023-02-01T07:01:05.103Z,23.90
2023-02-01T07:03:32.296Z,24.02
2023-02-01T07:05:59.872Z,19.73
2023-02-01T07:08:34.566Z,26.70
2023-02-01T07:11:09.608Z,29.20
2023-02-01T07:13:37.415Z,32.60
2023-02-01T07:16:07.139Z,26.38
2023-02-01T07:18:34.169Z,28.35
2023-02-01T07:21:01.269Z,29.98
2023-02-01T07:23:29.008Z,38.03
2023-02-01T07:26:02.277Z,34.05
2023-02-01T07:28:31.454Z,35.28
2023-02-01T07:31:16.525Z,36.80
2023-02-01T07:33:43.571Z,35.35
2023-02-01T07:36:16.612Z,33.67
2023-02-01T07:38:44.041Z,22.92
2023-02-01T07:41:11.382Z,27.83
2023-02-01T07:43:38.429Z,29.23
2023-02-01T07:46:08.246Z,23.55
2023-02-01T07:48:35.329Z,30.38
2023-02-01T07:51:09.451Z,26.85
2023-02-01T07:53:37.037Z,20.08
2023-02-01T07:56:04.951Z,28.15
2023-02-01T07:58:31.985Z,31.13
2023-02-01T08:01:17.826Z,32.95
2023-02-01T08:03:44.861Z,25.83
2023-02-01T08:06:11.915Z,27.60
2023-02-01T08:08:39.028Z,19.63
2023-02-01T08:11:07.427Z,25.15
2023-02-01T08:13:36.156Z,37.38
2023-02-01T08:16:06.140Z,30.20
2023-02-01T08:18:33.512Z,21.35
2023-02-01T08:21:15.652Z,25.98
2023-02-01T08:23:43.749Z,35.22
2023-02-01T08:26:15.703Z,15.80
2023-02-01T08:28:45.765Z,21.75
2023-02-01T08:31:17.443Z,23.50
2023-02-01T08:33:48.784Z,26.43
2023-02-01T08:36:15.783Z,34.25
2023-02-01T08:38:42.894Z,27.10
2023-02-01T08:41:13.406Z,25.65
2023-02-01T08:43:41.297Z,26.30
2023-02-01T08:46:09.465Z,36.78
2023-02-01T08:48:36.918Z,21.02
2023-02-01T08:51:06.933Z,26.73
2023-02-01T08:53:34.617Z,36.28
2023-02-01T08:56:02.011Z,32.15
2023-02-01T08:58:29.094Z,21.20
2023-02-01T09:00:56.576Z,29.90
2023-02-01T09:03:23.668Z,36.88
2023-02-01T09:05:51.425Z,39.95
2023-02-01T09:08:21.059Z,34.70
2023-02-01T09:10:48.107Z,27.38
2023-02-01T09:13:15.163Z,40.22
2023-02-01T09:15:42.209Z,29.75
2023-02-01T09:18:09.284Z,28.33
2023-02-01T09:20:38.006Z,24.55
2023-02-01T09:23:05.426Z,33.85
2023-02-01T09:25:32.389Z,26.33
2023-02-01T09:27:59.414Z,23.77
2023-02-01T09:30:26.638Z,29.02
2023-02-01T09:32:53.687Z,35.22
2023-02-01T09:35:20.799Z,28.15
2023-02-01T09:37:47.773Z,30.27
2023-02-01T09:40:18.127Z,26.88
2023-02-01T09:42:51.567Z,27.88
2023-02-01T09:45:22.840Z,35.13
2023-02-01T09:47:56.934Z,29.85
2023-02-01T09:50:33.898Z,35.78
2023-02-01T09:53:15.862Z,30.50
2023-02-01T09:55:47.871Z,32.97
2023-02-01T09:58:28.255Z,21.70
2023-02-01T10:00:58.704Z,18.25
2023-02-01T10:03:33.615Z,21.02
2023-02-01T10:06:22.606Z,20.00
2023-02-01T10:08:55.454Z,16.17
2023-02-01T10:11:25.293Z,39.63
2023-02-01T10:14:08.578Z,35.55
2023-02-01T10:16:48.093Z,23.92
2023-02-01T10:19:35.549Z,21.73
2023-02-01T10:22:08.892Z,22.25
2023-02-01T10:25:01.938Z,32.97
2023-02-01T10:27:38.788Z,30.42
2023-02-01T10:30:15.659Z,25.05
2023-02-01T10:32:43.272Z,21.70
2023-02-01T10:35:18.150Z,24.23
2023-02-01T10:37:47.350Z,20.80
2023-02-01T10:40:23.035Z,21.52
2023-02-01T10:43:00.353Z,22.52
2023-02-01T10:45:30.793Z,19.65
2023-02-01T10:48:00.257Z,22.73
2023-02-01T10:50:41.425Z,25.20
2023-02-01T10:53:11.562Z,25.55
2023-02-01T10:55:46.956Z,24.13
2023-02-01T10:58:19.924Z,27.27
2023-02-01T11:00:55.072Z,22.88
2023-02-01T11:03:43.539Z,22.35
2023-02-01T11:06:12.388Z,21.20
2023-02-01T11:08:52.567Z,25.23
2023-02-01T11:11:20.648Z,24.02
2023-02-01T11:13:56.701Z,14.25
2023-02-01T11:16:39.038Z,22.88
2023-02-01T11:19:07.156Z,32.55
2023-02-01T11:21:35.471Z,21.30
2023-02-01T11:24:06.101Z,23.08
2023-02-01T11:26:33.888Z,22.45
2023-02-01T11:29:11.761Z,18.73
2023-02-01T11:31:39.831Z,29.42
2023-02-01T11:34:18.082Z,18.77
2023-02-01T11:36:48.756Z,15.35
2023-02-01T11:39:15.726Z,23.83
2023-02-01T11:42:06.497Z,21.95
2023-02-01T11:44:35.626Z,15.50
2023-02-01T11:47:22.878Z,18.33
2023-02-01T11:49:52.720Z,28.95
2023-02-01T11:52:37.354Z,21.67
2023-02-01T11:55:35.753Z,24.10
2023-02-01T11:58:29.211Z,23.40
2023-02-01T12:01:18.323Z,26.48
2023-02-01T12:04:03.827Z,19.70
2023-02-01T12:06:51.468Z,17.50
2023-02-01T12:09:57.935Z,23.00
2023-02-01T12:12:52.302Z,25.70
2023-02-01T12:15:48.232Z,20.95
2023-02-01T12:18:34.847Z,24.88
2023-02-01T12:21:07.382Z,23.75
2023-02-01T12:26:31.990Z,32.78
2023-02-01T12:29:23.563Z,13.25
2023-02-01T12:32:12.288Z,15.82
2023-02-01T12:35:13.230Z,16.90
2023-02-01T12:38:02.086Z,20.77
2023-02-01T12:41:11.601Z,23.98
2023-02-01T12:43:50.414Z,18.27
2023-02-01T12:46:24.340Z,17.85
2023-02-01T12:49:03.453Z,22.35
2023-02-01T12:51:36.052Z,21.75
2023-02-01T12:54:38.347Z,17.20
2023-02-01T12:57:13.733Z,15.40
2023-02-01T12:59:45.884Z,27.50
2023-02-01T13:02:16.289Z,18.77
2023-02-01T13:05:12.646Z,21.65
2023-02-01T13:07:46.759Z,22.25
2023-02-01T13:10:25.374Z,25.60
2023-02-01T13:13:00.228Z,23.33
2023-02-01T13:15:34.179Z,19.60
2023-02-01T13:18:04.968Z,27.23
2023-02-01T13:20:37.972Z,22.75
2023-02-01T13:23:24.857Z,23.60
2023-02-01T13:25:53.355Z,21.10
2023-02-01T13:28:26.059Z,18.88
2023-02-01T13:31:22.863Z,19.27
2023-02-01T13:34:02.842Z,22.50
2023-02-01T13:36:57.181Z,25.67
2023-02-01T13:39:58.281Z,22.63
2023-02-01T13:42:30.739Z,34.00
2023-02-01T13:45:00.262Z,24.38
2023-02-01T13:47:34.490Z,20.13
2023-02-01T13:50:22.618Z,18.63
2023-02-01T13:53:01.620Z,17.08
2023-02-01T13:55:31.798Z,27.63
2023-02-01T13:58:06.771Z,22.05
2023-02-01T14:00:37.383Z,22.85
2023-02-01T14:03:10.685Z,26.65
2023-02-01T14:05:40.644Z,28.02
2023-02-01T14:08:10.621Z,18.75
2023-02-01T14:10:52.674Z,17.60
2023-02-01T14:13:33.282Z,32.60
2023-02-01T14:16:03.130Z,24.85
2023-02-01T14:18:36.353Z,27.23
2023-02-01T14:21:24.752Z,23.77
2023-02-01T14:23:54.696Z,25.45
2023-02-01T14:26:28.501Z,19.45
2023-02-01T14:29:20.284Z,23.80
2023-02-01T14:32:13.516Z,15.43
2023-02-01T14:34:55.473Z,27.02
2023-02-01T14:37:22.868Z,21.73
2023-02-01T14:40:03.456Z,25.33
2023-02-01T14:42:34.465Z,26.25
2023-02-01T14:45:19.783Z,26.63
2023-02-01T14:48:05.730Z,27.45
2023-02-01T14:50:41.251Z,15.15
2023-02-01T14:53:11.556Z,26.83
2023-02-01T14:55:42.991Z,20.58
2023-02-01T14:58:35.950Z,28.33
2023-02-01T15:04:10.408Z,20.15
2023-02-01T15:06:39.266Z,20.75
2023-02-01T15:09:14.888Z,21.90
2023-02-01T15:12:18.796Z,21.40
2023-02-01T15:14:50.151Z,16.75
2023-02-01T15:17:22.817Z,26.23
2023-02-01T15:20:01.052Z,26.70
2023-02-01T15:22:29.767Z,22.45
2023-02-01T15:24:59.026Z,36.95
2023-02-01T15:27:28.017Z,29.95
2023-02-01T15:29:55.170Z,31.63
2023-02-01T15:32:40.233Z,21.65
2023-02-01T15:35:38.727Z,17.90
2023-02-01T15:38:36.532Z,22.17
2023-02-01T15:41:12.134Z,35.55
2023-02-01T15:44:02.594Z,28.67
2023-02-01T15:46:37.097Z,37.50
2023-02-01T15:49:05.731Z,22.98
2023-02-01T15:51:33.678Z,29.58
2023-02-01T15:54:05.660Z,11.93
2023-02-01T15:56:41.831Z,30.08
2023-02-01T15:59:20.082Z,18.48
2023-02-01T16:01:48.346Z,18.90
2023-02-01T16:04:23.106Z,29.50
2023-02-01T16:06:55.281Z,23.13
2023-02-01T16:09:35.666Z,29.73
2023-02-01T16:12:04.646Z,20.33
2023-02-01T16:14:32.870Z,23.52
2023-02-01T16:17:00.323Z,21.45
2023-02-01T16:19:29.202Z,18.48
2023-02-01T16:21:56.862Z,22.80
2023-02-01T16:24:26.882Z,26.30
2023-02-01T16:26:54.035Z,14.07
2023-02-01T16:29:22.543Z,22.58
2023-02-01T16:31:50.355Z,19.00
2023-02-01T16:34:18.535Z,20.38
2023-02-01T16:36:52.795Z,26.38
2023-02-01T16:39:21.401Z,27.08
2023-02-01T16:41:48.475Z,20.80
2023-02-01T16:44:15.527Z,19.83
2023-02-01T16:46:45.921Z,17.73
2023-02-01T16:49:31.326Z,24.85
2023-02-01T16:52:00.027Z,24.92
2023-02-01T16:54:27.667Z,20.55
2023-02-01T16:56:55.212Z,30.85
2023-02-01T16:59:22.194Z,29.35
2023-02-01T17:01:49.189Z,26.20
2023-02-01T17:04:17.473Z,36.22
2023-02-01T17:06:48.088Z,25.17
2023-02-01T17:09:15.491Z,23.45
2023-02-01T17:11:42.585Z,34.22
2023-02-01T17:14:18.609Z,26.80
2023-02-01T17:16:49.182Z,31.35
2023-02-01T17:19:19.820Z,16.92
2023-02-01T17:21:52.372Z,27.83
2023-02-01T17:26:49.579Z,15.77
2023-02-01T17:29:16.897Z,23.92
2023-02-01T17:31:47.422Z,26.45
2023-02-01T17:34:17.917Z,18.50
2023-02-01T17:36:46.108Z,15.10
2023-02-01T17:39:37.129Z,19.23
2023-02-01T17:42:05.671Z,31.60
2023-02-01T17:44:32.772Z,22.92
2023-02-01T17:46:59.908Z,26.63
2023-02-01T17:49:30.622Z,26.08
2023-02-01T17:51:58.255Z,17.60
2023-02-01T17:54:26.307Z,36.63
2023-02-01T17:56:53.435Z,24.08
2023-02-01T17:59:20.445Z,16.00
2023-02-01T18:01:47.824Z,23.95
2023-02-01T18:04:18.556Z,16.75
2023-02-01T18:06:45.867Z,25.33
2023-02-01T18:09:12.896Z,32.80
2023-02-01T18:11:39.891Z,14.35
2023-02-01T18:14:07.062Z,19.50
2023-02-01T18:16:35.524Z,28.60
2023-02-01T18:19:04.764Z,22.75
2023-02-01T18:21:45.135Z,25.08
2023-02-01T18:24:14.401Z,18.73
2023-02-01T18:26:42.521Z,27.65
2023-02-01T18:29:09.779Z,26.20
2023-02-01T18:31:47.217Z,27.00
2023-02-01T18:34:21.150Z,20.85
2023-02-01T18:36:51.334Z,25.50
2023-02-01T18:39:18.421Z,27.63
2023-02-01T18:41:51.655Z,26.70
2023-02-01T18:44:18.808Z,26.15
2023-02-01T18:46:45.909Z,16.40
2023-02-01T18:49:17.837Z,21.17
2023-02-01T18:51:45.274Z,29.55
2023-02-01T18:54:12.476Z,40.30
2023-02-01T18:56:39.979Z,27.13
2023-02-01T18:59:07.125Z,27.85
2023-02-01T19:01:38.411Z,28.98
2023-02-01T19:04:07.716Z,26.70
2023-02-01T19:06:45.644Z,23.13
2023-02-01T19:09:12.676Z,31.38
2023-02-01T19:11:39.743Z,22.02
2023-02-01T19:14:09.475Z,24.23
2023-02-01T19:16:39.614Z,22.77
2023-02-01T19:19:06.712Z,20.95
2023-02-01T19:21:33.778Z,24.70
2023-02-01T19:24:00.888Z,27.15
2023-02-01T19:26:27.950Z,28.13
2023-02-01T19:28:58.162Z,26.23
2023-02-01T19:31:25.205Z,27.08
2023-02-01T19:33:52.258Z,32.15
2023-02-01T19:36:19.301Z,26.38
2023-02-01T19:38:46.379Z,20.48
2023-02-01T19:41:13.390Z,29.58
2023-02-01T19:43:40.466Z,30.08
2023-02-01T19:46:07.709Z,43.30
2023-02-01T19:48:34.985Z,26.73
2023-02-01T19:51:04.103Z,28.35
2023-02-01T19:53:31.318Z,27.65
2023-02-01T19:55:59.057Z,21.25
2023-02-01T19:58:26.331Z,31.13
2023-02-01T20:00:54.364Z,22.50
2023-02-01T20:03:22.064Z,19.90
2023-02-01T20:05:53.386Z,17.50
2023-02-01T20:08:21.143Z,20.63
2023-02-01T20:10:48.314Z,24.45
2023-02-01T20:13:16.214Z,19.05
2023-02-01T20:15:43.476Z,19.67
2023-02-01T20:18:10.943Z,37.13
2023-02-01T20:20:37.991Z,37.30
2023-02-01T20:23:06.293Z,19.70
2023-02-01T20:25:34.188Z,26.83
2023-02-01T20:28:01.488Z,27.83
2023-02-01T20:30:29.306Z,16.27
2023-02-01T20:32:56.478Z,31.23
2023-02-01T20:35:23.727Z,22.73
2023-02-01T20:37:51.741Z,29.92
2023-02-01T20:40:18.871Z,20.25
2023-02-01T20:42:46.076Z,26.17
2023-02-01T20:45:13.372Z,23.77
2023-02-01T20:47:42.222Z,25.90
2023-02-01T20:50:10.188Z,15.05
2023-02-01T20:52:37.293Z,25.48
2023-02-01T20:55:04.826Z,21.88
2023-02-01T20:57:32.724Z,26.00
2023-02-01T21:00:00.440Z,26.15
2023-02-01T21:02:27.495Z,32.53
2023-02-01T21:04:54.579Z,26.48
2023-02-01T21:07:21.937Z,28.48
2023-02-01T21:09:48.929Z,24.27
2023-02-01T21:12:15.948Z,27.35
2023-02-01T21:14:43.067Z,23.25
2023-02-01T21:17:10.064Z,19.73
2023-02-01T21:19:43.509Z,23.75
2023-02-01T21:22:11.803Z,25.83
2023-02-01T21:24:41.025Z,20.63
2023-02-01T21:27:09.424Z,29.98
2023-02-01T21:29:36.760Z,20.98
2023-02-01T21:32:05.060Z,39.47
2023-02-01T21:34:32.127Z,26.30
2023-02-01T21:36:59.334Z,27.73
2023-02-01T21:39:28.918Z,25.90
2023-02-01T21:42:16.402Z,16.98
2023-02-01T21:44:46.107Z,4.95
2023-02-01T21:47:16.615Z,10.57
2023-02-01T21:49:44.874Z,6.75
2023-02-01T21:52:12.563Z,9.32
2023-02-01T21:54:39.622Z,5.78
2023-02-01T21:57:11.046Z,14.77
2023-02-01T21:59:40.376Z,6.70
2023-02-01T22:02:13.258Z,4.63
2023-02-01T22:04:40.817Z,3.45
2023-02-01T22:07:07.958Z,3.47
2023-02-01T22:09:35.071Z,2.90
2023-02-01T22:12:02.074Z,2.65
2023-02-01T22:14:29.139Z,5.63
2023-02-01T22:16:56.187Z,7.97
2023-02-01T22:19:23.284Z,3.70
2023-02-01T22:21:50.309Z,9.48
2023-02-01T22:24:20.963Z,2.53
2023-02-01T22:26:48.808Z,3.88
2023-02-01T22:29:19.145Z,5.38
2023-02-01T22:31:46.555Z,5.22
2023-02-01T22:34:13.955Z,7.97
2023-02-01T22:36:41.186Z,14.00
2023-02-01T22:39:08.434Z,17.88
2023-02-01T22:41:35.533Z,12.13
2023-02-01T22:44:02.653Z,11.57
2023-02-01T22:46:31.326Z,10.02
2023-02-01T22:48:59.264Z,13.05
2023-02-01T22:51:30.826Z,18.48
2023-02-01T22:53:58.298Z,16.67
2023-02-01T22:56:35.107Z,12.43
2023-02-01T22:59:04.602Z,11.13
2023-02-01T23:01:33.134Z,5.15
2023-02-01T23:04:04.237Z,8.13
2023-02-01T23:06:32.360Z,6.80
2023-02-01T23:09:05.247Z,8.05
2023-02-01T23:11:32.347Z,4.20
2023-02-01T23:13:59.429Z,3.45
2023-02-01T23:16:29.024Z,3.83
2023-02-01T23:18:56.665Z,3.08
2023-02-01T23:21:24.045Z,3.38
2023-02-01T23:23:53.598Z,3.53
2023-02-01T23:26:21.925Z,1.35
2023-02-01T23:28:50.708Z,3.00
2023-02-01T23:31:17.965Z,3.45
2023-02-01T23:33:45.845Z,5.15
2023-02-01T23:36:16.124Z,6.15
2023-02-01T23:38:44.421Z,2.83
2023-02-01T23:41:12.843Z,4.80
2023-02-01T23:43:58.669Z,2.28
2023-02-01T23:46:28.851Z,3.58
2023-02-01T23:48:56.228Z,3.88
2023-02-01T23:51:24.102Z,2.10
2023-02-01T23:53:51.544Z,4.00
2023-02-01T23:56:28.035Z,6.68
2023-02-01T23:58:56.642Z,11.60
